sensor_id;sensor_type;location;lat;lon;timestamp;P1;durP1;ratioP1;P2;durP2;ratioP2
21188;SDS011;39071;52.420;20.896;2022-10-31T00:01:26;26.53;;;12.47;;
21188;SDS011;39071;52.420;20.896;2022-10-31T00:03:54;29.40;;;14.57;;
21188;SDS011;39071;52.420;20.896;2022-10-31T00:06:20;24.30;;;14.70;;
21188;SDS011;39071;52.420;20.896;2022-10-31T00:08:57;30.93;;;13.27;;
21188;SDS011;39071;52.420;20.896;2022-10-31T00:11:27;24.13;;;11.17;;
21188;SDS011;39071;52.420;20.896;2022-10-31T00:13:53;20.97;;;11.30;;
21188;SDS011;39071;52.420;20.896;2022-10-31T00:16:20;24.07;;;13.13;;
21188;SDS011;39071;52.420;20.896;2022-10-31T00:18:51;21.67;;;11.70;;
21188;SDS011;39071;52.420;20.896;2022-10-31T00:21:18;29.03;;;13.93;;
21188;SDS011;39071;52.420;20.896;2022-10-31T00:23:44;22.33;;;12.67;;
21188;SDS011;39071;52.420;20.896;2022-10-31T00:26:10;22.63;;;12.40;;
21188;SDS011;39071;52.420;20.896;2022-10-31T00:28:36;18.97;;;11.40;;
21188;SDS011;39071;52.420;20.896;2022-10-31T00:31:02;19.43;;;10.90;;
21188;SDS011;39071;52.420;20.896;2022-10-31T00:33:30;24.00;;;10.53;;
21188;SDS011;39071;52.420;20.896;2022-10-31T00:35:58;21.43;;;11.90;;
21188;SDS011;39071;52.420;20.896;2022-10-31T00:38:23;24.23;;;9.60;;
21188;SDS011;39071;52.420;20.896;2022-10-31T00:40:49;22.30;;;9.50;;
21188;SDS011;39071;52.420;20.896;2022-10-31T00:43:15;22.93;;;9.83;;
21188;SDS011;39071;52.420;20.896;2022-10-31T00:45:41;25.03;;;11.00;;
21188;SDS011;39071;52.420;20.896;2022-10-31T00:48:07;26.43;;;12.13;;
21188;SDS011;39071;52.420;20.896;2022-10-31T00:50:33;21.73;;;10.60;;
21188;SDS011;39071;52.420;20.896;2022-10-31T00:52:59;16.57;;;8.47;;
21188;SDS011;39071;52.420;20.896;2022-10-31T00:55:25;26.03;;;12.00;;
21188;SDS011;39071;52.420;20.896;2022-10-31T00:57:50;14.97;;;8.53;;
21188;SDS011;39071;52.420;20.896;2022-10-31T01:00:16;22.90;;;11.47;;
21188;SDS011;39071;52.420;20.896;2022-10-31T01:02:42;18.20;;;10.23;;
21188;SDS011;39071;52.420;20.896;2022-10-31T01:05:08;21.97;;;10.23;;
21188;SDS011;39071;52.420;20.896;2022-10-31T01:07:36;20.87;;;9.70;;
21188;SDS011;39071;52.420;20.896;2022-10-31T01:10:03;16.17;;;9.37;;
21188;SDS011;39071;52.420;20.896;2022-10-31T01:12:35;19.87;;;9.10;;
21188;SDS011;39071;52.420;20.896;2022-10-31T01:15:01;21.00;;;9.93;;
21188;SDS011;39071;52.420;20.896;2022-10-31T01:17:27;16.30;;;9.37;;
21188;SDS011;39071;52.420;20.896;2022-10-31T01:19:53;22.30;;;9.90;;
21188;SDS011;39071;52.420;20.896;2022-10-31T01:22:19;19.70;;;9.87;;
21188;SDS011;39071;52.420;20.896;2022-10-31T01:24:44;15.90;;;8.20;;
21188;SDS011;39071;52.420;20.896;2022-10-31T01:27:10;20.67;;;9.73;;
21188;SDS011;39071;52.420;20.896;2022-10-31T01:29:36;19.83;;;9.23;;
21188;SDS011;39071;52.420;20.896;2022-10-31T01:32:02;17.27;;;8.00;;
21188;SDS011;39071;52.420;20.896;2022-10-31T01:34:27;18.37;;;8.80;;
21188;SDS011;39071;52.420;20.896;2022-10-31T01:36:53;19.33;;;9.83;;
21188;SDS011;39071;52.420;20.896;2022-10-31T01:39:19;24.60;;;9.10;;
21188;SDS011;39071;52.420;20.896;2022-10-31T01:41:46;18.33;;;9.70;;
21188;SDS011;39071;52.420;20.896;2022-10-31T01:49:18;28.43;;;11.23;;
21188;SDS011;39071;52.420;20.896;2022-10-31T01:51:49;17.20;;;9.07;;
21188;SDS011;39071;52.420;20.896;2022-10-31T01:54:22;20.90;;;10.10;;
21188;SDS011;39071;52.420;20.896;2022-10-31T01:56:53;16.77;;;10.93;;
21188;SDS011;39071;52.420;20.896;2022-10-31T01:59:21;16.60;;;9.33;;
21188;SDS011;39071;52.420;20.896;2022-10-31T02:01:49;18.80;;;9.00;;
21188;SDS011;39071;52.420;20.896;2022-10-31T02:04:16;17.70;;;8.20;;
21188;SDS011;39071;52.420;20.896;2022-10-31T02:09:32;22.30;;;9.30;;
21188;SDS011;39071;52.420;20.896;2022-10-31T02:11:59;20.57;;;10.37;;
21188;SDS011;39071;52.420;20.896;2022-10-31T02:14:26;26.67;;;10.53;;
21188;SDS011;39071;52.420;20.896;2022-10-31T02:16:54;18.30;;;9.07;;
21188;SDS011;39071;52.420;20.896;2022-10-31T02:19:29;17.53;;;8.30;;
21188;SDS011;39071;52.420;20.896;2022-10-31T02:22:30;18.20;;;8.30;;
21188;SDS011;39071;52.420;20.896;2022-10-31T02:31:13;25.50;;;8.90;;
21188;SDS011;39071;52.420;20.896;2022-10-31T02:34:05;22.27;;;8.77;;
21188;SDS011;39071;52.420;20.896;2022-10-31T02:39:52;22.70;;;9.37;;
21188;SDS011;39071;52.420;20.896;2022-10-31T02:42:32;20.87;;;9.73;;
21188;SDS011;39071;52.420;20.896;2022-10-31T02:47:53;22.10;;;9.40;;
21188;SDS011;39071;52.420;20.896;2022-10-31T02:50:25;21.53;;;9.83;;
21188;SDS011;39071;52.420;20.896;2022-10-31T02:52:54;18.93;;;8.67;;
21188;SDS011;39071;52.420;20.896;2022-10-31T02:57:53;17.73;;;7.70;;
21188;SDS011;39071;52.420;20.896;2022-10-31T03:00:25;15.97;;;7.13;;
21188;SDS011;39071;52.420;20.896;2022-10-31T03:08:33;20.70;;;9.57;;
21188;SDS011;39071;52.420;20.896;2022-10-31T03:11:05;15.57;;;8.03;;
21188;SDS011;39071;52.420;20.896;2022-10-31T03:16:49;18.33;;;7.80;;
21188;SDS011;39071;52.420;20.896;2022-10-31T03:19:08;21.50;;;8.47;;
21188;SDS011;39071;52.420;20.896;2022-10-31T03:21:41;15.43;;;7.33;;
21188;SDS011;39071;52.420;20.896;2022-10-31T03:24:10;15.90;;;8.27;;
21188;SDS011;39071;52.420;20.896;2022-10-31T03:26:38;18.73;;;8.00;;
21188;SDS011;39071;52.420;20.896;2022-10-31T03:29:17;16.07;;;8.20;;
21188;SDS011;39071;52.420;20.896;2022-10-31T03:32:00;14.27;;;8.47;;
21188;SDS011;39071;52.420;20.896;2022-10-31T03:34:30;17.83;;;9.47;;
21188;SDS011;39071;52.420;20.896;2022-10-31T03:36:59;15.47;;;8.20;;
21188;SDS011;39071;52.420;20.896;2022-10-31T03:39:28;14.60;;;8.83;;
21188;SDS011;39071;52.420;20.896;2022-10-31T03:41:56;17.03;;;9.27;;
21188;SDS011;39071;52.420;20.896;2022-10-31T03:45:02;17.60;;;6.77;;
21188;SDS011;39071;52.420;20.896;2022-10-31T03:47:29;20.23;;;8.63;;
21188;SDS011;39071;52.420;20.896;2022-10-31T03:49:56;26.60;;;8.33;;
21188;SDS011;39071;52.420;20.896;2022-10-31T03:52:24;14.03;;;7.67;;
21188;SDS011;39071;52.420;20.896;2022-10-31T03:55:03;19.23;;;9.13;;
21188;SDS011;39071;52.420;20.896;2022-10-31T03:57:43;17.77;;;7.60;;
21188;SDS011;39071;52.420;20.896;2022-10-31T04:00:16;16.00;;;8.17;;
21188;SDS011;39071;52.420;20.896;2022-10-31T04:02:45;14.70;;;7.47;;
21188;SDS011;39071;52.420;20.896;2022-10-31T04:05:31;20.50;;;8.93;;
21188;SDS011;39071;52.420;20.896;2022-10-31T04:07:58;13.47;;;7.20;;
21188;SDS011;39071;52.420;20.896;2022-10-31T04:10:26;13.77;;;7.57;;
21188;SDS011;39071;52.420;20.896;2022-10-31T04:12:58;15.40;;;9.03;;
21188;SDS011;39071;52.420;20.896;2022-10-31T04:15:28;13.83;;;6.77;;
21188;SDS011;39071;52.420;20.896;2022-10-31T04:17:57;19.97;;;7.77;;
21188;SDS011;39071;52.420;20.896;2022-10-31T04:20:37;12.20;;;5.93;;
21188;SDS011;39071;52.420;20.896;2022-10-31T04:23:04;19.30;;;7.77;;
21188;SDS011;39071;52.420;20.896;2022-10-31T04:25:30;15.40;;;7.67;;
21188;SDS011;39071;52.420;20.896;2022-10-31T04:27:56;14.90;;;7.33;;
21188;SDS011;39071;52.420;20.896;2022-10-31T04:30:22;13.87;;;6.67;;
21188;SDS011;39071;52.420;20.896;2022-10-31T04:32:48;10.30;;;5.87;;
21188;SDS011;39071;52.420;20.896;2022-10-31T04:35:13;13.47;;;6.57;;
21188;SDS011;39071;52.420;20.896;2022-10-31T04:37:39;9.53;;;6.43;;
21188;SDS011;39071;52.420;20.896;2022-10-31T04:40:05;11.00;;;6.20;;
21188;SDS011;39071;52.420;20.896;2022-10-31T04:42:31;13.93;;;6.43;;
21188;SDS011;39071;52.420;20.896;2022-10-31T04:44:57;12.20;;;6.07;;
21188;SDS011;39071;52.420;20.896;2022-10-31T04:47:23;11.90;;;6.50;;
21188;SDS011;39071;52.420;20.896;2022-10-31T04:49:48;10.37;;;4.33;;
21188;SDS011;39071;52.420;20.896;2022-10-31T04:52:14;11.40;;;6.10;;
21188;SDS011;39071;52.420;20.896;2022-10-31T04:54:39;17.27;;;7.17;;
21188;SDS011;39071;52.420;20.896;2022-10-31T04:57:05;10.47;;;6.17;;
21188;SDS011;39071;52.420;20.896;2022-10-31T04:59:31;12.17;;;6.43;;
21188;SDS011;39071;52.420;20.896;2022-10-31T05:01:57;12.07;;;5.40;;
21188;SDS011;39071;52.420;20.896;2022-10-31T05:04:22;11.70;;;5.73;;
21188;SDS011;39071;52.420;20.896;2022-10-31T05:06:48;9.63;;;5.80;;
21188;SDS011;39071;52.420;20.896;2022-10-31T05:09:14;9.10;;;5.47;;
21188;SDS011;39071;52.420;20.896;2022-10-31T05:11:40;10.13;;;5.43;;
21188;SDS011;39071;52.420;20.896;2022-10-31T05:14:05;12.33;;;5.40;;
21188;SDS011;39071;52.420;20.896;2022-10-31T05:16:31;11.97;;;5.37;;
21188;SDS011;39071;52.420;20.896;2022-10-31T05:18:57;9.10;;;4.63;;
21188;SDS011;39071;52.420;20.896;2022-10-31T05:21:22;11.20;;;4.83;;
21188;SDS011;39071;52.420;20.896;2022-10-31T05:23:48;13.73;;;6.53;;
21188;SDS011;39071;52.420;20.896;2022-10-31T05:26:14;8.63;;;4.40;;
21188;SDS011;39071;52.420;20.896;2022-10-31T05:28:40;9.43;;;6.27;;
21188;SDS011;39071;52.420;20.896;2022-10-31T05:31:05;13.27;;;5.60;;
21188;SDS011;39071;52.420;20.896;2022-10-31T05:33:31;15.63;;;5.47;;
21188;SDS011;39071;52.420;20.896;2022-10-31T05:35:57;12.23;;;5.30;;
21188;SDS011;39071;52.420;20.896;2022-10-31T05:38:22;9.13;;;4.50;;
21188;SDS011;39071;52.420;20.896;2022-10-31T05:40:48;10.17;;;5.73;;
21188;SDS011;39071;52.420;20.896;2022-10-31T05:43:14;7.30;;;4.50;;
21188;SDS011;39071;52.420;20.896;2022-10-31T05:45:39;12.70;;;5.10;;
21188;SDS011;39071;52.420;20.896;2022-10-31T05:48:05;10.80;;;4.77;;
21188;SDS011;39071;52.420;20.896;2022-10-31T05:50:31;10.00;;;4.53;;
21188;SDS011;39071;52.420;20.896;2022-10-31T05:52:58;11.63;;;5.77;;
21188;SDS011;39071;52.420;20.896;2022-10-31T05:55:28;14.53;;;6.07;;
21188;SDS011;39071;52.420;20.896;2022-10-31T05:57:55;14.43;;;7.10;;
21188;SDS011;39071;52.420;20.896;2022-10-31T06:00:21;14.67;;;6.73;;
21188;SDS011;39071;52.420;20.896;2022-10-31T06:02:48;10.73;;;5.40;;
21188;SDS011;39071;52.420;20.896;2022-10-31T06:05:14;16.80;;;6.23;;
21188;SDS011;39071;52.420;20.896;2022-10-31T06:07:41;11.80;;;6.13;;
21188;SDS011;39071;52.420;20.896;2022-10-31T06:10:07;16.13;;;7.03;;
21188;SDS011;39071;52.420;20.896;2022-10-31T06:12:35;11.17;;;7.23;;
21188;SDS011;39071;52.420;20.896;2022-10-31T06:15:03;13.33;;;5.60;;
21188;SDS011;39071;52.420;20.896;2022-10-31T06:17:31;14.07;;;6.43;;
21188;SDS011;39071;52.420;20.896;2022-10-31T06:19:57;13.23;;;6.37;;
21188;SDS011;39071;52.420;20.896;2022-10-31T06:22:22;8.37;;;4.97;;
21188;SDS011;39071;52.420;20.896;2022-10-31T06:24:48;11.80;;;6.13;;
21188;SDS011;39071;52.420;20.896;2022-10-31T06:27:14;12.03;;;7.07;;
21188;SDS011;39071;52.420;20.896;2022-10-31T06:29:39;12.87;;;6.50;;
21188;SDS011;39071;52.420;20.896;2022-10-31T06:32:05;8.63;;;5.10;;
21188;SDS011;39071;52.420;20.896;2022-10-31T06:34:31;15.30;;;7.27;;
21188;SDS011;39071;52.420;20.896;2022-10-31T06:36:56;12.37;;;6.53;;
21188;SDS011;39071;52.420;20.896;2022-10-31T06:39:22;10.03;;;6.17;;
21188;SDS011;39071;52.420;20.896;2022-10-31T06:41:48;8.23;;;5.33;;
21188;SDS011;39071;52.420;20.896;2022-10-31T06:44:13;14.83;;;6.30;;
21188;SDS011;39071;52.420;20.896;2022-10-31T06:46:39;12.97;;;6.60;;
21188;SDS011;39071;52.420;20.896;2022-10-31T06:49:05;10.97;;;6.17;;
21188;SDS011;39071;52.420;20.896;2022-10-31T06:51:30;13.57;;;5.90;;
21188;SDS011;39071;52.420;20.896;2022-10-31T06:53:56;13.30;;;6.30;;
21188;SDS011;39071;52.420;20.896;2022-10-31T06:56:22;15.40;;;6.20;;
21188;SDS011;39071;52.420;20.896;2022-10-31T06:58:47;11.43;;;5.70;;
21188;SDS011;39071;52.420;20.896;2022-10-31T07:01:13;14.73;;;6.40;;
21188;SDS011;39071;52.420;20.896;2022-10-31T07:03:39;9.23;;;5.67;;
21188;SDS011;39071;52.420;20.896;2022-10-31T07:06:05;10.93;;;5.77;;
21188;SDS011;39071;52.420;20.896;2022-10-31T07:08:30;13.90;;;6.73;;
21188;SDS011;39071;52.420;20.896;2022-10-31T07:10:56;16.40;;;5.37;;
21188;SDS011;39071;52.420;20.896;2022-10-31T07:13:22;13.10;;;6.70;;
21188;SDS011;39071;52.420;20.896;2022-10-31T07:15:52;13.13;;;6.53;;
21188;SDS011;39071;52.420;20.896;2022-10-31T07:18:19;17.63;;;7.73;;
21188;SDS011;39071;52.420;20.896;2022-10-31T07:20:46;13.13;;;7.03;;
21188;SDS011;39071;52.420;20.896;2022-10-31T07:23:12;13.60;;;8.20;;
21188;SDS011;39071;52.420;20.896;2022-10-31T07:25:38;15.83;;;6.67;;
21188;SDS011;39071;52.420;20.896;2022-10-31T07:28:05;12.53;;;6.93;;
21188;SDS011;39071;52.420;20.896;2022-10-31T07:30:31;14.40;;;7.00;;
21188;SDS011;39071;52.420;20.896;2022-10-31T07:32:57;13.37;;;6.90;;
21188;SDS011;39071;52.420;20.896;2022-10-31T07:35:23;15.50;;;7.60;;
21188;SDS011;39071;52.420;20.896;2022-10-31T07:37:51;12.90;;;6.73;;
21188;SDS011;39071;52.420;20.896;2022-10-31T07:40:17;12.93;;;6.53;;
21188;SDS011;39071;52.420;20.896;2022-10-31T07:42:45;13.13;;;7.13;;
21188;SDS011;39071;52.420;20.896;2022-10-31T07:45:14;12.77;;;7.13;;
21188;SDS011;39071;52.420;20.896;2022-10-31T07:47:42;14.63;;;6.60;;
21188;SDS011;39071;52.420;20.896;2022-10-31T07:50:10;15.10;;;7.63;;
21188;SDS011;39071;52.420;20.896;2022-10-31T07:52:38;11.73;;;5.03;;
21188;SDS011;39071;52.420;20.896;2022-10-31T07:55:04;11.00;;;5.10;;
21188;SDS011;39071;52.420;20.896;2022-10-31T07:57:30;18.13;;;6.77;;
21188;SDS011;39071;52.420;20.896;2022-10-31T07:59:56;14.50;;;6.80;;
21188;SDS011;39071;52.420;20.896;2022-10-31T08:02:22;15.70;;;7.63;;
21188;SDS011;39071;52.420;20.896;2022-10-31T08:04:49;14.43;;;6.67;;
21188;SDS011;39071;52.420;20.896;2022-10-31T08:07:14;14.82;;;6.70;;
21188;SDS011;39071;52.420;20.896;2022-10-31T08:09:40;13.77;;;6.85;;
21188;SDS011;39071;52.420;20.896;2022-10-31T08:12:06;16.23;;;6.72;;
21188;SDS011;39071;52.420;20.896;2022-10-31T08:14:32;12.48;;;7.55;;
21188;SDS011;39071;52.420;20.896;2022-10-31T08:16:58;12.88;;;6.15;;
21188;SDS011;39071;52.420;20.896;2022-10-31T08:19:23;11.63;;;6.18;;
21188;SDS011;39071;52.420;20.896;2022-10-31T08:21:52;12.95;;;6.35;;
21188;SDS011;39071;52.420;20.896;2022-10-31T08:24:20;14.50;;;6.93;;
21188;SDS011;39071;52.420;20.896;2022-10-31T08:26:49;11.45;;;6.88;;
21188;SDS011;39071;52.420;20.896;2022-10-31T08:29:15;16.52;;;7.57;;
21188;SDS011;39071;52.420;20.896;2022-10-31T08:31:41;13.15;;;6.78;;
21188;SDS011;39071;52.420;20.896;2022-10-31T08:34:07;10.50;;;6.30;;
21188;SDS011;39071;52.420;20.896;2022-10-31T08:36:33;14.13;;;6.60;;
21188;SDS011;39071;52.420;20.896;2022-10-31T08:38:59;11.20;;;5.97;;
21188;SDS011;39071;52.420;20.896;2022-10-31T08:41:25;11.00;;;7.15;;
21188;SDS011;39071;52.420;20.896;2022-10-31T08:43:50;11.85;;;6.22;;
21188;SDS011;39071;52.420;20.896;2022-10-31T08:46:16;11.70;;;6.10;;
21188;SDS011;39071;52.420;20.896;2022-10-31T08:48:42;17.42;;;6.78;;
21188;SDS011;39071;52.420;20.896;2022-10-31T08:51:09;11.63;;;6.85;;
21188;SDS011;39071;52.420;20.896;2022-10-31T08:53:35;8.98;;;5.70;;
21188;SDS011;39071;52.420;20.896;2022-10-31T08:56:01;10.77;;;5.72;;
21188;SDS011;39071;52.420;20.896;2022-10-31T08:58:27;12.63;;;7.13;;
21188;SDS011;39071;52.420;20.896;2022-10-31T09:00:53;12.50;;;5.28;;
21188;SDS011;39071;52.420;20.896;2022-10-31T09:03:26;14.32;;;6.97;;
21188;SDS011;39071;52.420;20.896;2022-10-31T09:05:59;15.98;;;7.53;;
21188;SDS011;39071;52.420;20.896;2022-10-31T09:08:28;14.55;;;7.15;;
21188;SDS011;39071;52.420;20.896;2022-10-31T09:10:56;15.60;;;8.45;;
21188;SDS011;39071;52.420;20.896;2022-10-31T09:13:22;14.27;;;7.13;;
21188;SDS011;39071;52.420;20.896;2022-10-31T09:15:48;13.70;;;7.60;;
21188;SDS011;39071;52.420;20.896;2022-10-31T09:18:16;16.55;;;7.35;;
21188;SDS011;39071;52.420;20.896;2022-10-31T09:20:43;15.23;;;6.13;;
21188;SDS011;39071;52.420;20.896;2022-10-31T09:23:11;16.33;;;6.90;;
21188;SDS011;39071;52.420;20.896;2022-10-31T09:25:38;16.38;;;6.28;;
21188;SDS011;39071;52.420;20.896;2022-10-31T09:28:04;8.85;;;5.50;;
21188;SDS011;39071;52.420;20.896;2022-10-31T09:30:32;20.17;;;6.47;;
21188;SDS011;39071;52.420;20.896;2022-10-31T09:33:00;15.77;;;6.18;;
21188;SDS011;39071;52.420;20.896;2022-10-31T09:35:29;12.25;;;4.97;;
21188;SDS011;39071;52.420;20.896;2022-10-31T09:37:58;9.73;;;5.55;;
21188;SDS011;39071;52.420;20.896;2022-10-31T09:46:00;11.45;;;4.57;;
21188;SDS011;39071;52.420;20.896;2022-10-31T09:51:11;10.40;;;5.32;;
21188;SDS011;39071;52.420;20.896;2022-10-31T09:56:40;9.77;;;4.88;;
21188;SDS011;39071;52.420;20.896;2022-10-31T09:59:10;11.73;;;5.55;;
21188;SDS011;39071;52.420;20.896;2022-10-31T10:01:54;10.40;;;4.50;;
21188;SDS011;39071;52.420;20.896;2022-10-31T10:04:44;7.68;;;4.40;;
21188;SDS011;39071;52.420;20.896;2022-10-31T10:07:19;12.85;;;5.18;;
21188;SDS011;39071;52.420;20.896;2022-10-31T10:09:55;9.43;;;3.70;;
21188;SDS011;39071;52.420;20.896;2022-10-31T10:17:59;6.45;;;3.25;;
21188;SDS011;39071;52.420;20.896;2022-10-31T10:25:39;8.55;;;4.13;;
21188;SDS011;39071;52.420;20.896;2022-10-31T10:30:49;8.98;;;4.53;;
21188;SDS011;39071;52.420;20.896;2022-10-31T10:33:19;7.15;;;4.07;;
21188;SDS011;39071;52.420;20.896;2022-10-31T10:35:50;10.13;;;3.90;;
21188;SDS011;39071;52.420;20.896;2022-10-31T10:38:29;6.40;;;3.70;;
21188;SDS011;39071;52.420;20.896;2022-10-31T10:41:02;8.85;;;3.05;;
21188;SDS011;39071;52.420;20.896;2022-10-31T10:43:34;7.18;;;4.07;;
21188;SDS011;39071;52.420;20.896;2022-10-31T10:49:17;8.95;;;4.40;;
21188;SDS011;39071;52.420;20.896;2022-10-31T10:51:44;9.75;;;2.97;;
21188;SDS011;39071;52.420;20.896;2022-10-31T10:59:43;6.72;;;3.30;;
21188;SDS011;39071;52.420;20.896;2022-10-31T11:02:17;8.13;;;3.80;;
21188;SDS011;39071;52.420;20.896;2022-10-31T11:04:52;7.82;;;3.63;;
21188;SDS011;39071;52.420;20.896;2022-10-31T11:07:20;7.50;;;3.60;;
21188;SDS011;39071;52.420;20.896;2022-10-31T11:09:46;8.77;;;3.22;;
21188;SDS011;39071;52.420;20.896;2022-10-31T11:12:26;8.75;;;3.67;;
21188;SDS011;39071;52.420;20.896;2022-10-31T11:14:56;9.35;;;3.85;;
21188;SDS011;39071;52.420;20.896;2022-10-31T11:17:30;10.05;;;4.75;;
21188;SDS011;39071;52.420;20.896;2022-10-31T11:20:26;7.63;;;3.40;;
21188;SDS011;39071;52.420;20.896;2022-10-31T11:22:55;10.18;;;4.45;;
21188;SDS011;39071;52.420;20.896;2022-10-31T11:25:49;7.90;;;3.28;;
21188;SDS011;39071;52.420;20.896;2022-10-31T11:28:17;7.35;;;3.30;;
21188;SDS011;39071;52.420;20.896;2022-10-31T11:30:56;10.63;;;3.88;;
21188;SDS011;39071;52.420;20.896;2022-10-31T11:33:31;5.75;;;3.05;;
21188;SDS011;39071;52.420;20.896;2022-10-31T11:36:01;9.23;;;3.60;;
21188;SDS011;39071;52.420;20.896;2022-10-31T11:38:39;9.10;;;4.55;;
21188;SDS011;39071;52.420;20.896;2022-10-31T11:43:56;9.80;;;5.13;;
21188;SDS011;39071;52.420;20.896;2022-10-31T11:46:50;8.85;;;4.50;;
21188;SDS011;39071;52.420;20.896;2022-10-31T11:49:20;6.43;;;3.80;;
